Time;durP1;ratioP1;P1;durP2;ratioP2;P2;SDS_P1;SDS_P2;PMS_P1;PMS_P2;Temp;Humidity;BMP_temperature;BMP_pressure;BME280_temperature;BME280_humidity;BME280_pressure;Samples;Min_cycle;Max_cycle;Signal;HPM_P1;HPM_P2
2022/05/08 00:02:03;;;;;;;10.23;3.90;;;;;;;;;;5088168;28;20051;-73
2022/05/08 00:04:33;;;;;;;12.60;3.15;;;;;;;;;;5090534;28;20058;-73
2022/05/08 00:07:03;;;;;;;11.32;2.90;;;;;;;;;;5089464;28;20052;-74
2022/05/08 00:09:33;;;;;;;12.40;2.78;;;;;;;;;;5089889;28;20052;-75
2022/05/08 00:12:04;;;;;;;3.53;1.90;;;;;;;;;;5089891;28;20044;-76
2022/05/08 00:14:34;;;;;;;8.70;2.55;;;;;;;;;;5089362;28;20486;-74
2022/05/08 00:17:04;;;;;;;8.63;2.35;;;;;;;;;;5089265;28;20400;-74
2022/05/08 00:19:35;;;;;;;9.48;2.45;;;;;;;;;;5089747;28;20051;-74
2022/05/08 00:22:06;;;;;;;3.63;2.03;;;;;;;;;;5089402;28;20050;-75
2022/05/08 00:24:56;;;;;;;8.18;2.20;;;;;;;;;;5090043;28;20036;-74
2022/05/08 00:27:26;;;;;;;4.78;2.00;;;;;;;;;;5089651;28;20420;-72
2022/05/08 00:29:56;;;;;;;3.83;1.85;;;;;;;;;;5089839;28;20048;-74
2022/05/08 00:32:26;;;;;;;2.27;1.83;;;;;;;;;;5089379;28;20044;-74
2022/05/08 00:34:57;;;;;;;10.07;1.70;;;;;;;;;;5089210;28;20502;-74
2022/05/08 00:37:27;;;;;;;7.90;1.70;;;;;;;;;;5089220;28;20052;-75
2022/05/08 00:39:57;;;;;;;2.17;1.50;;;;;;;;;;5087998;28;20055;-74
2022/05/08 00:42:28;;;;;;;3.03;1.55;;;;;;;;;;5087332;28;20044;-74
2022/05/08 00:44:58;;;;;;;4.93;1.20;;;;;;;;;;5087314;28;20054;-75
2022/05/08 00:47:28;;;;;;;4.18;2.50;;;;;;;;;;5087984;28;20956;-74
2022/05/08 00:49:58;;;;;;;5.70;2.15;;;;;;;;;;5087885;28;20055;-74
2022/05/08 00:52:29;;;;;;;9.55;2.45;;;;;;;;;;5088320;28;20044;-74
2022/05/08 00:55:00;;;;;;;;;;;;;;;;;;5088993;28;20040;-74
2022/05/08 00:57:30;;;;;;;3.58;1.70;;;;;;;;;;5089141;28;20290;-74
2022/05/08 01:00:05;;;;;;;7.07;2.08;;;;;;;;;;5088976;28;20048;-74
2022/05/08 01:02:38;;;;;;;8.43;1.73;;;;;;;;;;5088869;28;20051;-74
2022/05/08 01:05:08;;;;;;;4.18;1.60;;;;;;;;;;5088498;28;20044;-74
2022/05/08 01:07:38;;;;;;;5.80;1.80;;;;;;;;;;5089369;28;20043;-74
2022/05/08 01:10:09;;;;;;;5.47;1.65;;;;;;;;;;5088861;28;20048;-74
2022/05/08 01:12:44;;;;;;;3.97;1.35;;;;;;;;;;5089500;28;20043;-74
2022/05/08 01:15:18;;;;;;;5.90;1.40;;;;;;;;;;5088709;28;20066;-75
2022/05/08 01:17:49;;;;;;;3.45;1.20;;;;;;;;;;5088700;28;20506;-74
2022/05/08 01:20:19;;;;;;;10.10;1.90;;;;;;;;;;5088645;28;20079;-76
2022/05/08 01:22:49;;;;;;;5.05;1.40;;;;;;;;;;5088401;28;20515;-74
2022/05/08 01:25:19;;;;;;;9.65;1.55;;;;;;;;;;5088008;28;20047;-74
2022/05/08 01:27:49;;;;;;;4.07;1.33;;;;;;;;;;5088206;28;20503;-74
2022/05/08 01:30:19;;;;;;;2.38;1.23;;;;;;;;;;5088527;28;20422;-74
2022/05/08 01:32:49;;;;;;;4.68;1.10;;;;;;;;;;5088817;28;20058;-74
2022/05/08 01:35:19;;;;;;;2.55;1.25;;;;;;;;;;5088975;28;20036;-74
2022/05/08 01:37:49;;;;;;;4.35;1.10;;;;;;;;;;5087964;28;20048;-74
2022/05/08 01:40:20;;;;;;;5.15;2.08;;;;;;;;;;5088357;28;20415;-75
2022/05/08 01:42:51;;;;;;;9.52;3.75;;;;;;;;;;5088096;28;20522;-74
2022/05/08 01:45:21;;;;;;;8.88;2.53;;;;;;;;;;5088308;28;20048;-75
2022/05/08 01:50:41;;;;;;;9.30;1.73;;;;;;;;;;5087739;28;20044;-74
2022/05/08 01:53:11;;;;;;;6.30;1.70;;;;;;;;;;5087981;28;20048;-74
2022/05/08 01:55:41;;;;;;;5.05;2.30;;;;;;;;;;5087960;28;20052;-74
2022/05/08 01:58:11;;;;;;;4.95;2.75;;;;;;;;;;5088536;28;20047;-74
2022/05/08 02:00:41;;;;;;;5.47;2.88;;;;;;;;;;5087876;28;20052;-74
2022/05/08 02:03:13;;;;;;;2.53;2.22;;;;;;;;;;5087731;28;20051;-74
2022/05/08 02:05:43;;;;;;;4.13;2.35;;;;;;;;;;5088130;28;20507;-74
2022/05/08 02:08:14;;;;;;;3.90;1.48;;;;;;;;;;5087554;28;20048;-74
2022/05/08 02:10:45;;;;;;;6.30;1.83;;;;;;;;;;5085368;28;20074;-74
2022/05/08 02:13:15;;;;;;;3.88;1.75;;;;;;;;;;5087393;28;20040;-74
2022/05/08 02:15:45;;;;;;;4.70;1.17;;;;;;;;;;5085521;28;20048;-74
2022/05/08 02:18:15;;;;;;;2.78;1.27;;;;;;;;;;5087739;28;20040;-74
2022/05/08 02:20:46;;;;;;;8.60;1.50;;;;;;;;;;5087692;28;20056;-74
2022/05/08 02:23:16;;;;;;;3.25;1.42;;;;;;;;;;5086936;28;20114;-74
2022/05/08 02:25:45;;;;;;;2.75;1.10;;;;;;;;;;5087605;28;20051;-74
2022/05/08 02:28:15;;;;;;;6.07;1.10;;;;;;;;;;5087571;28;20048;-74
2022/05/08 02:30:45;;;;;;;6.28;1.25;;;;;;;;;;5087296;28;20044;-74
2022/05/08 02:33:17;;;;;;;4.57;1.27;;;;;;;;;;5087502;28;20506;-73
2022/05/08 02:35:47;;;;;;;4.13;1.10;;;;;;;;;;5087202;28;20052;-74
2022/05/08 02:38:17;;;;;;;3.15;1.42;;;;;;;;;;5087246;28;20059;-74
2022/05/08 02:40:47;;;;;;;1.55;1.27;;;;;;;;;;5087288;28;20056;-74
2022/05/08 02:43:20;;;;;;;5.13;1.23;;;;;;;;;;5087146;28;20044;-74
2022/05/08 02:45:51;;;;;;;9.73;1.80;;;;;;;;;;5087295;28;20048;-74
2022/05/08 02:48:20;;;;;;;2.72;1.52;;;;;;;;;;5086631;28;20051;-74
2022/05/08 02:50:50;;;;;;;9.65;1.40;;;;;;;;;;5086776;28;20056;-74
2022/05/08 02:53:20;;;;;;;2.75;1.45;;;;;;;;;;5086973;28;20418;-74
2022/05/08 02:58:38;;;;;;;2.90;1.23;;;;;;;;;;5086811;28;20051;-74
2022/05/08 03:01:08;;;;;;;11.75;1.90;;;;;;;;;;5086467;28;20513;-74
2022/05/08 03:03:38;;;;;;;6.50;1.77;;;;;;;;;;5086969;28;20048;-74
2022/05/08 03:06:08;;;;;;;8.27;1.60;;;;;;;;;;5087058;28;20044;-74
2022/05/08 03:08:38;;;;;;;7.20;1.52;;;;;;;;;;5085702;28;20514;-75
2022/05/08 03:11:26;;;;;;;4.15;1.80;;;;;;;;;;5086614;28;20047;-74
2022/05/08 03:13:58;;;;;;;3.95;1.35;;;;;;;;;;5086486;28;20048;-74
2022/05/08 03:16:29;;;;;;;4.82;1.33;;;;;;;;;;5086147;28;20514;-75
2022/05/08 03:19:00;;;;;;;1.65;1.02;;;;;;;;;;5086513;28;20044;-74
2022/05/08 03:21:30;;;;;;;1.55;1.13;;;;;;;;;;5084787;28;20060;-74
2022/05/08 03:24:00;;;;;;;4.72;1.10;;;;;;;;;;5086281;28;20056;-74
2022/05/08 03:26:31;;;;;;;1.83;1.02;;;;;;;;;;5086349;28;20506;-74
2022/05/08 03:29:02;;;;;;;2.15;0.98;;;;;;;;;;5086893;28;20067;-74
2022/05/08 03:31:33;;;;;;;3.83;1.00;;;;;;;;;;5084778;28;20411;-74
2022/05/08 03:34:03;;;;;;;3.10;1.00;;;;;;;;;;5084818;28;20059;-74
2022/05/08 03:36:33;;;;;;;3.10;1.23;;;;;;;;;;5085890;28;20055;-73
2022/05/08 03:39:03;;;;;;;7.47;1.55;;;;;;;;;;5084628;28;20052;-74
2022/05/08 03:41:33;;;;;;;4.28;1.85;;;;;;;;;;5086312;28;20060;-74
2022/05/08 03:44:03;;;;;;;4.63;1.63;;;;;;;;;;5086175;28;20056;-74
2022/05/08 03:46:35;;;;;;;5.30;1.55;;;;;;;;;;5086053;28;20048;-74
2022/05/08 03:49:06;;;;;;;2.35;1.33;;;;;;;;;;5083541;28;20048;-73
2022/05/08 03:51:36;;;;;;;3.08;1.08;;;;;;;;;;5086180;28;20047;-74
2022/05/08 03:54:08;;;;;;;3.65;1.45;;;;;;;;;;5086104;28;20498;-74
2022/05/08 03:56:39;;;;;;;5.03;1.48;;;;;;;;;;5086467;28;20048;-74
2022/05/08 03:59:09;;;;;;;6.47;1.48;;;;;;;;;;5085983;28;20416;-74
2022/05/08 04:01:39;;;;;;;2.20;1.50;;;;;;;;;;5086355;28;20062;-74
2022/05/08 04:04:09;;;;;;;8.70;1.70;;;;;;;;;;5085703;28;20087;-74
2022/05/08 04:06:39;;;;;;;3.70;1.40;;;;;;;;;;5085460;28;20051;-74
2022/05/08 04:09:09;;;;;;;6.97;1.30;;;;;;;;;;5085503;28;20048;-74
2022/05/08 04:11:39;;;;;;;4.85;1.40;;;;;;;;;;5085027;28;20431;-74
2022/05/08 04:14:09;;;;;;;5.05;1.42;;;;;;;;;;5085258;28;20059;-74
2022/05/08 04:16:40;;;;;;;4.10;1.60;;;;;;;;;;5085991;28;20059;-74
2022/05/08 04:19:10;;;;;;;3.70;1.70;;;;;;;;;;5086064;28;20763;-74
2022/05/08 04:21:40;;;;;;;4.45;1.40;;;;;;;;;;5085820;28;20047;-74
2022/05/08 04:24:18;;;;;;;9.07;1.52;;;;;;;;;;5086493;28;20479;-74
2022/05/08 04:26:50;;;;;;;3.83;1.60;;;;;;;;;;5086186;28;20056;-74
2022/05/08 04:29:20;;;;;;;4.18;1.27;;;;;;;;;;5085619;28;20421;-74
2022/05/08 04:31:50;;;;;;;4.72;1.63;;;;;;;;;;5086068;28;20051;-74
2022/05/08 04:34:21;;;;;;;3.13;1.60;;;;;;;;;;5084817;28;20048;-74
2022/05/08 04:36:52;;;;;;;3.58;1.10;;;;;;;;;;5085048;28;20521;-74
2022/05/08 04:39:22;;;;;;;4.18;1.30;;;;;;;;;;5085102;28;20522;-74
2022/05/08 04:41:52;;;;;;;3.08;1.20;;;;;;;;;;5085660;28;20051;-74
2022/05/08 04:44:22;;;;;;;6.60;1.35;;;;;;;;;;5083744;28;20785;-74
2022/05/08 04:46:53;;;;;;;6.33;1.00;;;;;;;;;;5086692;28;20055;-74
2022/05/08 04:49:24;;;;;;;6.93;1.52;;;;;;;;;;5088888;28;20529;-74
2022/05/08 04:51:55;;;;;;;2.88;1.27;;;;;;;;;;5089035;28;20059;-74
2022/05/08 04:54:24;;;;;;;5.35;1.70;;;;;;;;;;5088751;28;20059;-74
2022/05/08 04:56:55;;;;;;;4.65;1.45;;;;;;;;;;5087512;28;20062;-74
2022/05/08 04:59:29;;;;;;;3.00;1.73;;;;;;;;;;5089248;28;20066;-74
2022/05/08 05:01:59;;;;;;;3.40;1.30;;;;;;;;;;5089376;28;20047;-74
2022/05/08 05:04:29;;;;;;;9.20;1.60;;;;;;;;;;5089139;28;20491;-74
2022/05/08 05:06:59;;;;;;;3.65;1.95;;;;;;;;;;5089469;28;20051;-75
2022/05/08 05:09:29;;;;;;;4.53;1.67;;;;;;;;;;5089068;28;20047;-75
2022/05/08 05:12:03;;;;;;;3.25;1.67;;;;;;;;;;5088921;28;20044;-74
2022/05/08 05:14:33;;;;;;;7.40;1.88;;;;;;;;;;5090072;28;20059;-74
2022/05/08 05:17:05;;;;;;;4.30;1.98;;;;;;;;;;5094629;28;20059;-74
2022/05/08 05:19:35;;;;;;;3.28;1.92;;;;;;;;;;5096623;28;20051;-74
2022/05/08 05:22:06;;;;;;;6.73;2.30;;;;;;;;;;5095649;28;20056;-74
2022/05/08 05:24:36;;;;;;;4.88;2.30;;;;;;;;;;5100534;28;20545;-74
2022/05/08 05:27:06;;;;;;;6.93;2.25;;;;;;;;;;5092152;28;20052;-74
2022/05/08 05:29:36;;;;;;;3.15;1.30;;;;;;;;;;5088869;28;20806;-74
2022/05/08 05:32:08;;;;;;;1.75;1.40;;;;;;;;;;5088863;28;20044;-74
2022/05/08 05:34:38;;;;;;;6.25;1.65;;;;;;;;;;5087937;28;20051;-74
2022/05/08 05:37:09;;;;;;;3.13;2.00;;;;;;;;;;5088892;28;20051;-74
2022/05/08 05:39:39;;;;;;;3.00;2.00;;;;;;;;;;5088279;28;20058;-74
2022/05/08 05:42:09;;;;;;;4.13;2.40;;;;;;;;;;5087855;28;20055;-74
2022/05/08 05:44:39;;;;;;;5.05;2.05;;;;;;;;;;5088518;28;20051;-74
2022/05/08 05:49:58;;;;;;;4.40;2.30;;;;;;;;;;5088433;28;20055;-74
2022/05/08 05:52:29;;;;;;;6.28;2.20;;;;;;;;;;5088313;28;20043;-74
2022/05/08 05:54:59;;;;;;;4.80;2.42;;;;;;;;;;5088030;28;20051;-74
2022/05/08 05:57:29;;;;;;;6.43;2.50;;;;;;;;;;5088000;28;20048;-74
2022/05/08 05:59:59;;;;;;;6.43;2.28;;;;;;;;;;5087391;28;20547;-74
2022/05/08 06:02:40;;;;;;;4.97;2.10;;;;;;;;;;5093659;28;20056;-74
2022/05/08 06:05:13;;;;;;;4.28;2.47;;;;;;;;;;5087894;28;20052;-74
2022/05/08 06:07:45;;;;;;;6.32;2.35;;;;;;;;;;5085940;28;20051;-74
2022/05/08 06:10:16;;;;;;;11.73;2.40;;;;;;;;;;5088553;28;20478;-74
2022/05/08 06:12:48;;;;;;;4.07;2.30;;;;;;;;;;5087767;28;20048;-74
2022/05/08 06:15:18;;;;;;;3.20;2.35;;;;;;;;;;5087506;28;20048;-74
2022/05/08 06:17:48;;;;;;;6.03;2.45;;;;;;;;;;5087740;28;20052;-74
2022/05/08 06:20:18;;;;;;;5.40;1.73;;;;;;;;;;5085175;28;20521;-74
2022/05/08 06:22:48;;;;;;;2.40;1.50;;;;;;;;;;5087009;28;20052;-74
2022/05/08 06:25:18;;;;;;;6.88;1.65;;;;;;;;;;5086400;28;20438;-74
2022/05/08 06:27:48;;;;;;;3.63;2.00;;;;;;;;;;5087641;28;20418;-74
2022/05/08 06:30:18;;;;;;;7.15;1.52;;;;;;;;;;5087965;28;20043;-74
2022/05/08 06:32:48;;;;;;;2.78;1.65;;;;;;;;;;5087454;28;20032;-74
2022/05/08 06:35:41;;;;;;;3.47;2.10;;;;;;;;;;5087121;28;20047;-74
2022/05/08 06:38:12;;;;;;;4.88;2.13;;;;;;;;;;5087326;28;20048;-74
2022/05/08 06:40:45;;;;;;;5.72;2.47;;;;;;;;;;5086534;28;20060;-74
2022/05/08 06:43:16;;;;;;;5.90;2.53;;;;;;;;;;5087202;28;20074;-74
2022/05/08 06:45:46;;;;;;;5.05;2.40;;;;;;;;;;5086884;28;20055;-74
2022/05/08 06:48:16;;;;;;;5.22;2.13;;;;;;;;;;5086167;28;20048;-74
2022/05/08 06:50:46;;;;;;;5.93;2.03;;;;;;;;;;5086017;28;20067;-74
2022/05/08 06:53:16;;;;;;;6.03;2.33;;;;;;;;;;5087537;28;20491;-74
2022/05/08 06:55:46;;;;;;;3.55;2.88;;;;;;;;;;5086916;28;20052;-74
2022/05/08 06:58:16;;;;;;;5.97;2.40;;;;;;;;;;5086445;28;20506;-74
2022/05/08 07:03:36;;;;;;;7.35;2.80;;;;;;;;;;5086064;28;20069;-74
2022/05/08 07:06:06;;;;;;;5.20;2.88;;;;;;;;;;5086721;28;20040;-74
2022/05/08 07:08:36;;;;;;;5.47;2.83;;;;;;;;;;5086877;28;20055;-74
2022/05/08 07:11:06;;;;;;;9.00;3.45;;;;;;;;;;5086522;28;20056;-74
2022/05/08 07:13:38;;;;;;;22.35;3.83;;;;;;;;;;5086813;28;20048;-74
2022/05/08 07:16:08;;;;;;;9.05;2.92;;;;;;;;;;5086915;28;20040;-74
2022/05/08 07:18:39;;;;;;;27.20;3.85;;;;;;;;;;5086746;28;20105;-74
2022/05/08 07:21:09;;;;;;;13.18;4.47;;;;;;;;;;5086039;28;20059;-74
2022/05/08 07:23:39;;;;;;;14.10;4.28;;;;;;;;;;5086469;28;20051;-74
2022/05/08 07:26:09;;;;;;;7.07;3.72;;;;;;;;;;5086638;28;20426;-74
2022/05/08 07:28:40;;;;;;;4.88;3.65;;;;;;;;;;5086260;28;21063;-74
2022/05/08 07:31:10;;;;;;;8.68;3.13;;;;;;;;;;5086295;28;20056;-74
2022/05/08 07:33:40;;;;;;;11.13;3.33;;;;;;;;;;5086091;28;20048;-74
2022/05/08 07:36:13;;;;;;;13.88;3.13;;;;;;;;;;5085139;28;20503;-74
2022/05/08 07:38:47;;;;;;;10.82;3.10;;;;;;;;;;5085678;28;20511;-74
2022/05/08 07:41:18;;;;;;;7.20;2.88;;;;;;;;;;5086375;28;20044;-74
2022/05/08 07:43:48;;;;;;;9.98;3.13;;;;;;;;;;5086444;28;20055;-74
2022/05/08 07:46:18;;;;;;;42.58;3.13;;;;;;;;;;5085902;28;20381;-74
2022/05/08 07:48:49;;;;;;;58.65;3.55;;;;;;;;;;5085940;28;20048;-74
2022/05/08 07:51:19;;;;;;;7.05;2.47;;;;;;;;;;5086254;28;20055;-74
2022/05/08 07:53:49;;;;;;;24.27;3.50;;;;;;;;;;5084239;28;20044;-74
2022/05/08 07:56:19;;;;;;;6.25;2.70;;;;;;;;;;5085989;28;20044;-74
2022/05/08 07:58:49;;;;;;;172.07;5.63;;;;;;;;;;5084529;28;20036;-74
2022/05/08 08:01:18;;;;;;;12.25;3.00;;;;;;;;;;5085706;28;20044;-74
2022/05/08 08:04:10;;;;;;;4.47;2.60;;;;;;;;;;5084982;28;20608;-74
2022/05/08 08:06:40;;;;;;;3.15;2.35;;;;;;;;;;5085851;28;20043;-74
2022/05/08 08:09:11;;;;;;;5.25;2.42;;;;;;;;;;5085595;28;20052;-74
2022/05/08 08:11:42;;;;;;;8.35;2.00;;;;;;;;;;5085609;28;20055;-74
2022/05/08 08:14:12;;;;;;;5.50;2.50;;;;;;;;;;5086561;28;20055;-74
2022/05/08 08:17:02;;;;;;;3.78;1.90;;;;;;;;;;5086080;28;20055;-74
2022/05/08 08:19:32;;;;;;;2.45;2.08;;;;;;;;;;5086280;28;20039;-74
2022/05/08 08:22:02;;;;;;;11.40;2.63;;;;;;;;;;5086716;28;20055;-74
2022/05/08 08:24:32;;;;;;;31.02;4.03;;;;;;;;;;5090062;28;20043;-74
2022/05/08 08:27:03;;;;;;;28.67;3.10;;;;;;;;;;5089684;28;20502;-74
2022/05/08 08:29:33;;;;;;;22.63;3.10;;;;;;;;;;5089737;28;20414;-74
2022/05/08 08:32:04;;;;;;;52.03;3.67;;;;;;;;;;5089320;28;20048;-74
2022/05/08 08:34:34;;;;;;;95.15;4.22;;;;;;;;;;5089201;28;20051;-74
2022/05/08 08:37:04;;;;;;;63.25;3.60;;;;;;;;;;5090040;28;20040;-74
2022/05/08 08:39:35;;;;;;;24.58;3.42;;;;;;;;;;5089711;28;20410;-73
2022/05/08 08:42:11;;;;;;;36.45;3.00;;;;;;;;;;5089295;28;20040;-74
2022/05/08 08:47:47;;;;;;;36.60;2.83;;;;;;;;;;5089454;28;20040;-74
2022/05/08 08:50:18;;;;;;;53.22;3.25;;;;;;;;;;5090311;28;20503;-73
2022/05/08 08:52:48;;;;;;;19.92;3.10;;;;;;;;;;5089409;28;20490;-74
2022/05/08 08:55:20;;;;;;;7.63;2.70;;;;;;;;;;5088938;28;20052;-74
2022/05/08 08:57:51;;;;;;;12.98;2.90;;;;;;;;;;5088879;28;20047;-73
2022/05/08 09:00:21;;;;;;;12.20;2.83;;;;;;;;;;5087032;28;20498;-73
2022/05/08 09:02:55;;;;;;;37.35;3.38;;;;;;;;;;5089246;28;20055;-74
2022/05/08 09:05:25;;;;;;;3.70;2.40;;;;;;;;;;5088669;28;20047;-74
2022/05/08 09:07:56;;;;;;;21.98;3.88;;;;;;;;;;5088284;28;20047;-74
2022/05/08 09:10:35;;;;;;;36.78;3.67;;;;;;;;;;5089220;28;20055;-74
2022/05/08 09:13:07;;;;;;;5.90;2.70;;;;;;;;;;5089007;28;20048;-74
2022/05/08 09:15:39;;;;;;;4.53;2.35;;;;;;;;;;5089338;28;20059;-73
2022/05/08 09:18:11;;;;;;;10.30;2.63;;;;;;;;;;5089015;28;20541;-73
2022/05/08 09:20:42;;;;;;;4.95;2.30;;;;;;;;;;5088692;28;20048;-74
2022/05/08 09:23:21;;;;;;;3.10;2.80;;;;;;;;;;5088159;28;20040;-74
2022/05/08 09:25:55;;;;;;;11.27;3.78;;;;;;;;;;5089060;28;20040;-73
2022/05/08 09:28:41;;;;;;;6.57;3.33;;;;;;;;;;5088546;28;20047;-73
2022/05/08 09:31:17;;;;;;;5.68;3.33;;;;;;;;;;5088633;28;20499;-74
2022/05/08 09:33:51;;;;;;;4.40;2.20;;;;;;;;;;5088210;28;20040;-74
2022/05/08 09:36:27;;;;;;;8.90;2.40;;;;;;;;;;5088680;28;20708;-74
2022/05/08 09:38:59;;;;;;;6.22;2.15;;;;;;;;;;5087065;28;20058;-73
2022/05/08 09:41:42;;;;;;;15.73;2.20;;;;;;;;;;5088192;28;20757;-73
2022/05/08 09:44:18;;;;;;;2.50;1.95;;;;;;;;;;5088876;28;20815;-73
2022/05/08 09:46:49;;;;;;;43.15;3.60;;;;;;;;;;5087971;28;20047;-73
2022/05/08 09:49:21;;;;;;;53.55;2.55;;;;;;;;;;5087967;28;20060;-74
2022/05/08 09:51:53;;;;;;;11.57;1.67;;;;;;;;;;5087598;28;20051;-74
2022/05/08 09:54:26;;;;;;;34.42;2.10;;;;;;;;;;5088351;28;20048;-74
2022/05/08 09:56:59;;;;;;;43.40;2.17;;;;;;;;;;5088223;28;20048;-74
2022/05/08 09:59:30;;;;;;;11.13;1.55;;;;;;;;;;5087737;28;20059;-73
2022/05/08 10:02:00;;;;;;;4.43;2.00;;;;;;;;;;5087771;28;20044;-74
2022/05/08 10:04:35;;;;;;;2.30;1.57;;;;;;;;;;5086167;28;20055;-73
2022/05/08 10:07:05;;;;;;;8.77;2.90;;;;;;;;;;5088135;28;20517;-73
2022/05/08 10:15:31;;;;;;;2.42;1.95;;;;;;;;;;5067611;28;20067;-74
2022/05/08 10:18:19;;;;;;;4.55;1.92;;;;;;;;;;5087229;28;20871;-73
2022/05/08 10:21:18;;;;;;;3.50;1.88;;;;;;;;;;5087266;28;20044;-73
2022/05/08 10:23:49;;;;;;;1.38;1.27;;;;;;;;;;5075625;28;20442;-73
2022/05/08 10:26:22;;;;;;;2.17;1.23;;;;;;;;;;5087608;28;20047;-73
2022/05/08 10:29:04;;;;;;;1.17;1.05;;;;;;;;;;5087691;28;20047;-73
2022/05/08 10:31:48;;;;;;;2.92;1.00;;;;;;;;;;5085999;28;20052;-73
2022/05/08 10:34:34;;;;;;;7.07;1.35;;;;;;;;;;5087614;28;20416;-74
2022/05/08 10:37:13;;;;;;;3.38;1.88;;;;;;;;;;5085166;28;20059;-74
2022/05/08 10:39:46;;;;;;;5.53;1.60;;;;;;;;;;5087092;28;20143;-74
2022/05/08 10:42:33;;;;;;;1.88;1.40;;;;;;;;;;5087007;28;20044;-74
2022/05/08 10:45:06;;;;;;;1.40;1.30;;;;;;;;;;5086721;28;20056;-74
2022/05/08 10:47:36;;;;;;;2.58;1.48;;;;;;;;;;5086964;28;20044;-74
2022/05/08 10:50:09;;;;;;;1.27;1.17;;;;;;;;;;5087512;28;20052;-73
2022/05/08 10:52:45;;;;;;;6.20;5.60;;;;;;;;;;5086847;28;20055;-73
2022/05/08 10:55:17;;;;;;;3.67;2.50;;;;;;;;;;5086803;28;20062;-74
2022/05/08 10:57:49;;;;;;;15.38;2.45;;;;;;;;;;5086674;28;20074;-74
2022/05/08 11:00:21;;;;;;;10.57;1.75;;;;;;;;;;5086630;28;20391;-75
2022/05/08 11:02:57;;;;;;;12.68;1.90;;;;;;;;;;5086278;28;20047;-74
2022/05/08 11:05:36;;;;;;;29.70;1.92;;;;;;;;;;5086677;28;20052;-75
2022/05/08 11:08:12;;;;;;;48.08;2.58;;;;;;;;;;5086177;28;20047;-74
2022/05/08 11:10:43;;;;;;;9.13;1.85;;;;;;;;;;5086183;28;20052;-74
2022/05/08 11:13:21;;;;;;;6.40;1.48;;;;;;;;;;5086932;28;20058;-74
2022/05/08 11:15:51;;;;;;;2.38;1.40;;;;;;;;;;5086299;28;20047;-75
2022/05/08 11:18:24;;;;;;;1.45;0.98;;;;;;;;;;5086782;28;20036;-75
2022/05/08 11:21:04;;;;;;;5.35;1.00;;;;;;;;;;5086463;28;20040;-74
2022/05/08 11:23:41;;;;;;;1.80;0.90;;;;;;;;;;5086270;28;20048;-74
2022/05/08 11:26:14;;;;;;;8.30;1.05;;;;;;;;;;5086811;28;20471;-75
2022/05/08 11:28:57;;;;;;;1.08;0.90;;;;;;;;;;5086258;28;20427;-79
2022/05/08 11:31:28;;;;;;;1.27;0.88;;;;;;;;;;5087038;28;20048;-77
2022/05/08 11:36:47;;;;;;;2.20;0.90;;;;;;;;;;5087399;28;20399;-74
2022/05/08 11:39:20;;;;;;;7.15;1.25;;;;;;;;;;5086224;28;20044;-74
2022/05/08 11:41:52;;;;;;;3.25;1.23;;;;;;;;;;5085917;28;20044;-74
2022/05/08 11:44:24;;;;;;;3.72;1.23;;;;;;;;;;5085038;28;20399;-74
2022/05/08 11:46:57;;;;;;;4.60;1.45;;;;;;;;;;5085992;28;20048;-74
2022/05/08 11:49:29;;;;;;;10.13;1.40;;;;;;;;;;5086238;28;20055;-74
2022/05/08 11:52:02;;;;;;;4.80;1.10;;;;;;;;;;5085835;28;20044;-74
2022/05/08 11:54:40;;;;;;;2.65;1.50;;;;;;;;;;5084127;28;20418;-73
2022/05/08 11:57:26;;;;;;;4.45;1.20;;;;;;;;;;5087678;28;20060;-74
2022/05/08 12:00:06;;;;;;;8.10;1.73;;;;;;;;;;5089698;28;20067;-74
2022/05/08 12:02:48;;;;;;;1.88;1.00;;;;;;;;;;5091210;28;20521;-74
2022/05/08 12:05:19;;;;;;;8.77;1.98;;;;;;;;;;5087731;28;20051;-74
2022/05/08 12:07:49;;;;;;;3.90;1.02;;;;;;;;;;5089635;28;20052;-74
2022/05/08 12:10:35;;;;;;;1.50;1.10;;;;;;;;;;5089640;28;20052;-74
2022/05/08 12:13:06;;;;;;;2.75;0.90;;;;;;;;;;5089960;28;20059;-74
2022/05/08 12:15:36;;;;;;;;;;;;;;;;;;5090491;28;20048;-73
2022/05/08 12:18:06;;;;;;;5.00;1.42;;;;;;;;;;5089287;28;19924;-73
2022/05/08 12:20:42;;;;;;;1.90;1.23;;;;;;;;;;5089498;28;20044;-73
2022/05/08 12:23:12;;;;;;;7.93;1.55;;;;;;;;;;5089617;28;20048;-74
2022/05/08 12:25:44;;;;;;;1.40;1.27;;;;;;;;;;5090218;28;20052;-75
2022/05/08 12:28:15;;;;;;;8.70;1.75;;;;;;;;;;5088611;28;20056;-75
2022/05/08 12:30:46;;;;;;;3.85;1.35;;;;;;;;;;5089198;28;20508;-76
2022/05/08 12:33:16;;;;;;;11.83;1.37;;;;;;;;;;5088082;28;20424;-76
2022/05/08 12:35:46;;;;;;;7.80;1.50;;;;;;;;;;5088592;28;20321;-75
2022/05/08 12:38:20;;;;;;;3.90;2.00;;;;;;;;;;5088697;28;20040;-76
2022/05/08 12:40:49;;;;;;;2.03;1.38;;;;;;;;;;5088932;28;20040;-75
2022/05/08 12:43:20;;;;;;;11.05;1.92;;;;;;;;;;5088738;28;20407;-76
2022/05/08 12:45:50;;;;;;;9.50;3.22;;;;;;;;;;5088506;28;20043;-77
2022/05/08 12:48:21;;;;;;;5.60;2.30;;;;;;;;;;5089285;28;20044;-75
2022/05/08 12:50:51;;;;;;;3.45;1.88;;;;;;;;;;5089492;28;20060;-75
2022/05/08 12:53:21;;;;;;;1.85;1.60;;;;;;;;;;5088828;28;20538;-76
2022/05/08 12:55:52;;;;;;;4.05;1.77;;;;;;;;;;5089256;28;20059;-77
2022/05/08 13:01:10;;;;;;;5.03;1.38;;;;;;;;;;5088994;28;20408;-76
2022/05/08 13:03:40;;;;;;;12.38;3.25;;;;;;;;;;5091355;28;20529;-78
2022/05/08 13:06:11;;;;;;;1.92;1.30;;;;;;;;;;5108452;28;20044;-77
2022/05/08 13:08:40;;;;;;;5.28;1.40;;;;;;;;;;5108837;28;20040;-77
2022/05/08 13:11:11;;;;;;;3.08;1.52;;;;;;;;;;5108712;28;20051;-77
2022/05/08 13:13:42;;;;;;;4.90;1.33;;;;;;;;;;5108694;28;20048;-77
2022/05/08 13:16:14;;;;;;;5.45;1.95;;;;;;;;;;5109106;28;20676;-76
2022/05/08 13:18:45;;;;;;;7.78;1.52;;;;;;;;;;5109409;28;20123;-76
2022/05/08 13:21:16;;;;;;;2.93;1.40;;;;;;;;;;5108930;28;20047;-78
2022/05/08 13:23:46;;;;;;;7.88;1.60;;;;;;;;;;5109120;28;20040;-77
2022/05/08 13:26:16;;;;;;;;;;;;;;;;;;5109236;28;20537;-76
2022/05/08 13:28:46;;;;;;;2.40;1.20;;;;;;;;;;5108559;28;19923;-76
2022/05/08 13:31:16;;;;;;;5.47;1.70;;;;;;;;;;5109194;28;20062;-75
2022/05/08 13:33:47;;;;;;;4.05;1.23;;;;;;;;;;5108611;28;20569;-76
2022/05/08 13:36:17;;;;;;;2.78;1.05;;;;;;;;;;5108907;28;20054;-76
2022/05/08 13:38:47;;;;;;;2.50;1.00;;;;;;;;;;5108981;28;20063;-79
2022/05/08 13:41:19;;;;;;;5.88;1.27;;;;;;;;;;5109078;28;20047;-76
2022/05/08 13:43:49;;;;;;;3.57;1.33;;;;;;;;;;5109034;28;20052;-76
2022/05/08 13:46:19;;;;;;;4.15;1.20;;;;;;;;;;5109040;28;20051;-76
2022/05/08 13:48:49;;;;;;;1.30;0.90;;;;;;;;;;5108627;28;20052;-77
2022/05/08 13:51:19;;;;;;;6.50;1.10;;;;;;;;;;5108718;28;20292;-77
2022/05/08 13:53:50;;;;;;;2.63;1.00;;;;;;;;;;5109233;28;20044;-77
2022/05/08 13:56:20;;;;;;;5.90;1.58;;;;;;;;;;5106830;28;20521;-76
2022/05/08 13:58:52;;;;;;;5.50;1.20;;;;;;;;;;5107624;28;20056;-77
2022/05/08 14:01:22;;;;;;;6.07;1.15;;;;;;;;;;5106989;28;20052;-76
2022/05/08 14:03:52;;;;;;;9.30;1.30;;;;;;;;;;5108258;28;20052;-78
2022/05/08 14:06:23;;;;;;;3.28;1.17;;;;;;;;;;5108460;28;20054;-77
2022/05/08 14:08:53;;;;;;;9.15;1.38;;;;;;;;;;5108617;28;20056;-78
2022/05/08 14:11:23;;;;;;;2.67;1.00;;;;;;;;;;5108477;28;20052;-79
2022/05/08 14:13:54;;;;;;;2.88;1.40;;;;;;;;;;5107761;28;20058;-76
2022/05/08 14:16:24;;;;;;;4.23;1.53;;;;;;;;;;5108427;28;20058;-78
2022/05/08 14:18:54;;;;;;;2.37;1.30;;;;;;;;;;5108314;28;20043;-77
2022/05/08 14:21:24;;;;;;;7.55;1.45;;;;;;;;;;5107649;28;20286;-77
2022/05/08 14:23:54;;;;;;;1.10;0.90;;;;;;;;;;5108138;28;20055;-77
2022/05/08 14:26:25;;;;;;;7.77;1.10;;;;;;;;;;5107944;28;20055;-76
2022/05/08 14:28:54;;;;;;;8.00;0.90;;;;;;;;;;5107569;28;20048;-75
2022/05/08 14:37:01;;;;;;;2.47;1.00;;;;;;;;;;5107933;28;20054;-77
2022/05/08 14:39:32;;;;;;;2.55;1.20;;;;;;;;;;5108259;28;20051;-77
2022/05/08 14:42:01;;;;;;;2.93;1.20;;;;;;;;;;5107807;28;20055;-76
2022/05/08 14:44:31;;;;;;;5.35;0.90;;;;;;;;;;5107497;28;20047;-79
2022/05/08 14:47:01;;;;;;;1.92;0.88;;;;;;;;;;5107747;28;20139;-78
2022/05/08 14:49:31;;;;;;;3.03;1.00;;;;;;;;;;5107622;28;20053;-77
2022/05/08 14:52:01;;;;;;;2.05;0.80;;;;;;;;;;5106971;28;20059;-77
2022/05/08 14:54:31;;;;;;;4.13;1.30;;;;;;;;;;5106532;28;20495;-78
2022/05/08 14:57:01;;;;;;;1.77;1.00;;;;;;;;;;5105991;28;20052;-77
2022/05/08 14:59:32;;;;;;;1.53;1.10;;;;;;;;;;5107853;28;20047;-77
2022/05/08 15:02:02;;;;;;;4.13;1.73;;;;;;;;;;5107699;28;20392;-78
2022/05/08 15:04:32;;;;;;;8.93;1.23;;;;;;;;;;5107661;28;20043;-76
2022/05/08 15:07:03;;;;;;;9.67;1.20;;;;;;;;;;5107158;28;20039;-77
2022/05/08 15:09:33;;;;;;;1.55;0.90;;;;;;;;;;5107469;28;20043;-77
2022/05/08 15:12:04;;;;;;;3.13;1.08;;;;;;;;;;5107173;28;20051;-77
2022/05/08 15:14:34;;;;;;;3.88;1.17;;;;;;;;;;5107057;28;20410;-78
2022/05/08 15:17:04;;;;;;;2.58;1.00;;;;;;;;;;5107468;28;20046;-76
2022/05/08 15:19:34;;;;;;;;;;;;;;;;;;5108287;28;20521;-77
2022/05/08 15:22:05;;;;;;;3.55;1.00;;;;;;;;;;5107655;28;19953;-77
2022/05/08 15:24:34;;;;;;;5.65;1.25;;;;;;;;;;5107824;28;20051;-77
2022/05/08 15:27:05;;;;;;;4.13;1.30;;;;;;;;;;5088839;28;20047;-77
2022/05/08 15:29:35;;;;;;;2.75;1.00;;;;;;;;;;5106998;28;20066;-77
2022/05/08 15:32:11;;;;;;;3.00;1.35;;;;;;;;;;5106327;28;20513;-77
2022/05/08 15:34:41;;;;;;;2.45;0.85;;;;;;;;;;5107030;28;20514;-76
2022/05/08 15:37:11;;;;;;;2.10;1.00;;;;;;;;;;5106542;28;20077;-77
2022/05/08 15:39:41;;;;;;;2.67;1.20;;;;;;;;;;5106462;28;20051;-78
2022/05/08 15:42:12;;;;;;;2.67;0.98;;;;;;;;;;5096135;28;20414;-76